createdAt,value
2022-12-15T00:00:08.102Z,98.25
2022-12-15T00:02:53.313Z,97.90
2022-12-15T00:05:38.442Z,97.32
2022-12-15T00:08:27.282Z,98.26
2022-12-15T00:11:12.790Z,99.56
2022-12-15T00:13:58.188Z,99.23
2022-12-15T00:16:44.838Z,98.27
2022-12-15T00:19:30.159Z,97.57
2022-12-15T00:22:15.494Z,97.52
2022-12-15T00:25:00.941Z,97.78
2022-12-15T00:27:46.258Z,97.14
2022-12-15T00:30:31.609Z,95.54
2022-12-15T00:33:18.369Z,96.06
2022-12-15T00:36:03.844Z,96.53
2022-12-15T00:38:44.462Z,97.16
2022-12-15T00:41:13.955Z,96.91
2022-12-15T00:43:41.999Z,98.20
2022-12-15T00:46:27.596Z,98.32
2022-12-15T00:48:57.143Z,96.80
2022-12-15T00:51:42.744Z,95.75
2022-12-15T00:54:29.072Z,95.47
2022-12-15T00:57:14.658Z,95.38
2022-12-15T01:00:00.305Z,96.73
2022-12-15T01:02:45.742Z,97.60
2022-12-15T01:05:32.955Z,97.88
2022-12-15T01:08:18.863Z,97.84
2022-12-15T01:11:04.157Z,97.69
2022-12-15T01:13:49.569Z,98.44
2022-12-15T01:16:35.254Z,99.33
2022-12-15T01:19:20.957Z,100.00
2022-12-15T01:21:50.869Z,99.43
2022-12-15T01:24:18.816Z,97.26
2022-12-15T01:26:46.738Z,96.99
2022-12-15T01:29:14.645Z,97.33
2022-12-15T01:31:44.067Z,97.49
2022-12-15T01:34:12.167Z,97.16
2022-12-15T01:36:40.109Z,96.04
2022-12-15T01:39:09.456Z,96.44
2022-12-15T01:41:36.386Z,96.91
2022-12-15T01:44:18.888Z,97.12
2022-12-15T01:46:48.384Z,98.18
2022-12-15T01:49:21.894Z,97.77
2022-12-15T01:51:53.549Z,97.98
2022-12-15T01:54:25.982Z,97.90
2022-12-15T01:56:57.933Z,97.42
2022-12-15T01:59:35.306Z,96.90
2022-12-15T02:02:04.172Z,96.58
2022-12-15T02:04:33.834Z,95.69
2022-12-15T02:07:01.832Z,95.56
2022-12-15T02:09:32.011Z,95.94
2022-12-15T02:12:10.040Z,96.19
2022-12-15T02:14:48.390Z,96.29
2022-12-15T02:17:29.441Z,96.31
2022-12-15T02:20:38.889Z,95.71
2022-12-15T02:23:31.706Z,96.26
2022-12-15T02:26:30.362Z,94.68
2022-12-15T02:29:11.134Z,95.04
2022-12-15T02:31:53.967Z,94.86
2022-12-15T02:34:32.474Z,94.15
2022-12-15T02:37:05.836Z,93.88
2022-12-15T02:39:33.737Z,94.02
2022-12-15T02:42:01.753Z,94.54
2022-12-15T02:44:35.603Z,95.50
2022-12-15T02:47:28.736Z,94.54
2022-12-15T02:50:20.618Z,94.62
2022-12-15T02:52:59.274Z,94.98
2022-12-15T02:55:35.782Z,95.64
2022-12-15T02:58:10.093Z,95.36
2022-12-15T03:00:42.310Z,94.63
2022-12-15T03:03:12.964Z,94.99
2022-12-15T03:05:41.041Z,93.50
2022-12-15T03:08:09.296Z,94.67
2022-12-15T03:10:37.228Z,95.44
2022-12-15T03:13:05.842Z,94.58
2022-12-15T03:15:35.783Z,94.38
2022-12-15T03:18:03.922Z,94.33
2022-12-15T03:20:33.415Z,94.26
2022-12-15T03:23:01.911Z,94.80
2022-12-15T03:25:29.918Z,94.49
2022-12-15T03:27:58.005Z,94.75
2022-12-15T03:30:26.033Z,94.95
2022-12-15T03:32:53.997Z,95.84
2022-12-15T03:35:21.950Z,96.38
2022-12-15T03:37:51.327Z,95.93
2022-12-15T03:40:19.229Z,95.28
2022-12-15T03:42:49.912Z,94.83
2022-12-15T03:45:19.415Z,94.83
2022-12-15T03:47:48.048Z,94.81
2022-12-15T03:50:17.792Z,95.00
2022-12-15T03:52:45.764Z,94.70
2022-12-15T03:55:16.089Z,94.89
2022-12-15T03:57:44.046Z,94.55
2022-12-15T04:00:15.116Z,94.63
2022-12-15T04:02:43.584Z,94.12
2022-12-15T04:05:16.124Z,94.04
2022-12-15T04:07:44.215Z,94.16
2022-12-15T04:10:14.036Z,93.83
2022-12-15T04:12:42.012Z,93.57
2022-12-15T04:15:11.510Z,93.69
2022-12-15T04:17:39.928Z,93.37
2022-12-15T04:20:11.877Z,93.89
2022-12-15T04:22:41.566Z,93.93
2022-12-15T04:25:28.712Z,93.67
2022-12-15T04:28:15.384Z,93.82
2022-12-15T04:31:05.139Z,94.10
2022-12-15T04:33:50.879Z,95.07
2022-12-15T04:36:36.727Z,94.50
2022-12-15T04:39:23.854Z,94.16
2022-12-15T04:42:09.739Z,93.51
2022-12-15T04:44:57.041Z,94.36
2022-12-15T04:47:42.636Z,94.83
2022-12-15T04:50:27.717Z,94.56
2022-12-15T04:53:13.406Z,93.99
2022-12-15T04:55:58.791Z,93.50
2022-12-15T04:58:44.054Z,94.97
2022-12-15T05:01:31.400Z,94.44
2022-12-15T05:04:16.859Z,94.35
2022-12-15T05:07:02.083Z,95.10
2022-12-15T05:09:47.519Z,94.04
2022-12-15T05:12:32.870Z,93.39
2022-12-15T05:15:18.113Z,95.11
2022-12-15T05:18:04.826Z,94.42
2022-12-15T05:20:50.266Z,94.78
2022-12-15T05:23:36.178Z,94.91
2022-12-15T05:26:21.392Z,95.69
2022-12-15T05:29:06.806Z,95.40
2022-12-15T05:31:52.292Z,95.61
2022-12-15T05:34:23.189Z,96.93
2022-12-15T05:36:51.786Z,96.84
2022-12-15T05:39:19.862Z,97.30
2022-12-15T05:41:48.241Z,97.36
2022-12-15T05:44:17.348Z,97.03
2022-12-15T05:46:45.847Z,96.74
2022-12-15T05:49:16.097Z,97.27
2022-12-15T05:51:46.656Z,96.41
2022-12-15T05:54:17.445Z,95.78
2022-12-15T05:56:45.449Z,96.97
2022-12-15T05:59:14.007Z,96.40
2022-12-15T06:01:42.060Z,95.71
2022-12-15T06:04:12.172Z,95.69
2022-12-15T06:06:40.640Z,96.82
2022-12-15T06:09:10.568Z,96.27
2022-12-15T06:11:38.527Z,96.11
2022-12-15T06:14:06.931Z,95.47
2022-12-15T06:16:38.256Z,95.31
2022-12-15T06:19:08.988Z,95.90
2022-12-15T06:21:37.566Z,96.20
2022-12-15T06:24:07.222Z,96.24
2022-12-15T06:26:38.208Z,95.71
2022-12-15T06:29:08.836Z,95.54
2022-12-15T06:31:38.002Z,94.36
2022-12-15T06:34:07.978Z,94.36
2022-12-15T06:36:36.059Z,94.57
2022-12-15T06:39:06.470Z,94.09
2022-12-15T06:41:35.951Z,93.44
2022-12-15T06:44:04.591Z,93.24
2022-12-15T06:46:34.988Z,94.29
2022-12-15T06:49:03.404Z,93.09
2022-12-15T06:51:31.318Z,93.03
2022-12-15T06:54:00.307Z,91.14
2022-12-15T06:56:33.466Z,90.93
2022-12-15T06:59:05.373Z,90.38
2022-12-15T07:01:33.785Z,89.61
2022-12-15T07:04:04.875Z,91.05
2022-12-15T07:06:36.938Z,91.47
2022-12-15T07:09:07.451Z,90.81
2022-12-15T07:11:35.714Z,91.76
2022-12-15T07:14:05.156Z,91.90
2022-12-15T07:16:33.507Z,92.90
2022-12-15T07:19:01.502Z,91.08
2022-12-15T07:21:29.507Z,92.20
2022-12-15T07:23:58.556Z,92.33
2022-12-15T07:26:27.701Z,91.85
2022-12-15T07:28:56.333Z,91.59
2022-12-15T07:31:26.015Z,90.20
2022-12-15T07:33:54.714Z,89.79
2022-12-15T07:36:23.151Z,89.02
2022-12-15T07:38:51.873Z,87.77
2022-12-15T07:41:21.307Z,87.58
2022-12-15T07:43:49.451Z,86.25
2022-12-15T07:46:18.027Z,86.54
2022-12-15T07:48:50.513Z,85.69
2022-12-15T07:51:21.200Z,86.10
2022-12-15T07:53:50.666Z,86.17
2022-12-15T07:56:19.622Z,85.79
2022-12-15T07:58:47.918Z,85.45
2022-12-15T08:01:16.397Z,85.15
2022-12-15T08:03:45.144Z,84.41
2022-12-15T08:06:16.138Z,84.53
2022-12-15T08:08:50.816Z,83.84
2022-12-15T08:11:20.610Z,83.15
2022-12-15T08:14:02.397Z,82.23
2022-12-15T08:16:31.253Z,82.54
2022-12-15T08:18:59.378Z,82.25
2022-12-15T08:21:28.694Z,81.09
2022-12-15T08:23:56.632Z,81.52
2022-12-15T08:26:29.958Z,82.05
2022-12-15T08:29:17.498Z,82.37
2022-12-15T08:31:47.175Z,84.29
2022-12-15T08:34:15.391Z,84.39
2022-12-15T08:36:44.753Z,85.68
2022-12-15T08:39:12.709Z,85.88
2022-12-15T08:41:41.241Z,86.15
2022-12-15T08:44:09.417Z,86.90
2022-12-15T08:46:37.461Z,85.59
2022-12-15T08:49:05.802Z,84.77
2022-12-15T08:51:34.729Z,84.97
2022-12-15T08:54:04.075Z,84.93
2022-12-15T08:56:32.170Z,83.68
2022-12-15T08:59:03.250Z,83.27
2022-12-15T09:01:33.363Z,83.33
2022-12-15T09:04:02.189Z,83.62
2022-12-15T09:06:31.989Z,82.14
2022-12-15T09:09:02.331Z,81.56
2022-12-15T09:11:32.097Z,82.69
2022-12-15T09:14:00.416Z,81.70
2022-12-15T09:16:29.021Z,80.95
2022-12-15T09:18:59.725Z,81.20
2022-12-15T09:21:29.249Z,81.27
2022-12-15T09:24:00.662Z,81.40
2022-12-15T09:26:32.361Z,81.90
2022-12-15T09:29:01.893Z,81.59
2022-12-15T09:31:32.611Z,81.22
2022-12-15T09:34:02.111Z,81.94
2022-12-15T09:36:32.653Z,82.34
2022-12-15T09:39:02.648Z,82.02
2022-12-15T09:41:34.370Z,81.05
2022-12-15T09:44:05.212Z,80.58
2022-12-15T09:46:45.015Z,79.18
2022-12-15T09:49:34.512Z,78.99
2022-12-15T09:52:10.711Z,78.55
2022-12-15T09:54:41.827Z,80.14
2022-12-15T09:57:18.639Z,79.19
2022-12-15T10:00:21.861Z,77.64
2022-12-15T10:03:14.204Z,79.26
2022-12-15T10:06:15.590Z,79.48
2022-12-15T10:08:47.018Z,79.62
2022-12-15T10:11:23.883Z,80.14
2022-12-15T10:14:02.275Z,80.82
2022-12-15T10:16:37.732Z,80.79
2022-12-15T10:19:13.868Z,79.40
2022-12-15T10:21:42.735Z,78.12
2022-12-15T10:24:31.427Z,79.42
2022-12-15T10:27:18.873Z,79.39
2022-12-15T10:29:51.985Z,79.08
2022-12-15T10:32:25.373Z,77.60
2022-12-15T10:34:53.399Z,76.38
2022-12-15T10:37:24.308Z,76.22
2022-12-15T10:39:52.609Z,77.33
2022-12-15T10:42:22.792Z,76.65
2022-12-15T10:44:54.148Z,76.98
2022-12-15T10:47:25.958Z,76.26
2022-12-15T10:49:55.073Z,75.20
2022-12-15T10:52:28.495Z,75.23
2022-12-15T10:54:57.366Z,75.31
2022-12-15T10:57:31.719Z,75.47
2022-12-15T11:00:28.636Z,75.71
2022-12-15T11:02:57.056Z,75.54
2022-12-15T11:05:25.572Z,75.83
2022-12-15T11:07:55.342Z,76.29
2022-12-15T11:10:25.226Z,74.98
2022-12-15T11:12:59.517Z,73.72
2022-12-15T11:15:45.434Z,72.88
2022-12-15T11:18:24.663Z,73.87
2022-12-15T11:21:00.832Z,74.65
2022-12-15T11:23:46.753Z,72.40
2022-12-15T11:26:26.602Z,72.06
2022-12-15T11:28:59.815Z,71.73
2022-12-15T11:31:35.083Z,71.62
2022-12-15T11:34:03.204Z,70.15
2022-12-15T11:37:00.020Z,71.73
2022-12-15T11:39:45.086Z,73.10
2022-12-15T11:42:23.555Z,71.53
2022-12-15T11:45:00.684Z,70.84
2022-12-15T11:47:40.684Z,70.67
2022-12-15T11:50:21.018Z,70.44
2022-12-15T11:53:16.443Z,69.65
2022-12-15T11:55:53.171Z,70.00
2022-12-15T11:58:46.075Z,69.81
2022-12-15T12:01:35.819Z,69.47
2022-12-15T12:04:17.855Z,69.97
2022-12-15T12:06:55.798Z,68.81
2022-12-15T12:09:31.877Z,68.67
2022-12-15T12:12:13.273Z,68.02
2022-12-15T12:14:51.301Z,68.23
2022-12-15T12:17:33.893Z,68.97
2022-12-15T12:20:11.624Z,68.33
2022-12-15T12:22:44.826Z,67.89
2022-12-15T12:25:18.738Z,67.16
2022-12-15T12:27:53.008Z,68.29
2022-12-15T12:30:23.234Z,69.35
2022-12-15T12:32:59.636Z,69.13
2022-12-15T12:35:37.428Z,70.08
2022-12-15T12:38:07.342Z,70.32
2022-12-15T12:40:47.922Z,68.48
2022-12-15T12:43:32.101Z,68.03
2022-12-15T12:46:05.271Z,67.58
2022-12-15T12:48:39.724Z,67.19
2022-12-15T12:51:18.849Z,68.78
2022-12-15T12:53:46.799Z,68.84
2022-12-15T12:56:32.059Z,68.09
2022-12-15T12:59:00.154Z,68.09
2022-12-15T13:01:33.771Z,68.35
2022-12-15T13:04:11.153Z,67.70
2022-12-15T13:07:07.752Z,68.68
2022-12-15T13:09:42.239Z,69.45
2022-12-15T13:12:52.042Z,70.05
2022-12-15T13:15:38.240Z,70.13
2022-12-15T13:18:16.422Z,70.26
2022-12-15T13:20:48.951Z,71.20
2022-12-15T13:23:37.661Z,71.03
2022-12-15T13:26:19.209Z,71.14
2022-12-15T13:28:51.836Z,72.27
2022-12-15T13:31:34.694Z,73.43
2022-12-15T13:34:15.047Z,73.81
2022-12-15T13:37:03.006Z,73.94
2022-12-15T13:39:38.303Z,73.15
2022-12-15T13:42:53.001Z,72.34
2022-12-15T13:45:36.620Z,72.83
2022-12-15T13:48:15.366Z,71.78
2022-12-15T13:53:43.272Z,74.06
2022-12-15T13:56:25.485Z,73.25
2022-12-15T13:59:00.583Z,73.99
2022-12-15T14:01:32.733Z,76.15
2022-12-15T14:04:06.036Z,77.99
2022-12-15T14:06:40.941Z,78.52
2022-12-15T14:09:15.246Z,79.58
2022-12-15T14:11:53.284Z,79.44
2022-12-15T14:14:26.543Z,79.39
2022-12-15T14:16:58.918Z,79.28
2022-12-15T14:19:30.909Z,79.33
2022-12-15T14:22:01.470Z,79.00
2022-12-15T14:24:40.278Z,78.95
2022-12-15T14:27:10.099Z,79.27
2022-12-15T14:29:38.072Z,78.62
2022-12-15T14:32:11.425Z,78.66
2022-12-15T14:34:41.971Z,79.11
2022-12-15T14:37:15.533Z,78.54
2022-12-15T14:39:46.123Z,78.50
2022-12-15T14:42:20.611Z,78.78
2022-12-15T14:44:50.848Z,79.17
2022-12-15T14:47:26.924Z,79.58
2022-12-15T14:49:56.297Z,79.41
2022-12-15T14:52:31.985Z,78.62
2022-12-15T14:55:02.473Z,79.20
2022-12-15T14:57:44.645Z,78.95
2022-12-15T15:00:26.829Z,79.08
2022-12-15T15:03:12.194Z,71.94
2022-12-15T15:03:19.918Z,79.07
2022-12-15T15:05:51.034Z,79.92
2022-12-15T15:08:27.099Z,80.51
2022-12-15T15:10:57.335Z,81.39
2022-12-15T15:13:36.068Z,81.63
2022-12-15T15:16:14.230Z,81.66
2022-12-15T15:18:44.455Z,81.71
2022-12-15T15:21:19.197Z,81.90
2022-12-15T15:23:59.286Z,82.17
2022-12-15T15:26:28.466Z,81.92
2022-12-15T15:28:58.311Z,82.16
2022-12-15T15:31:40.395Z,82.18
2022-12-15T15:34:09.052Z,81.80
2022-12-15T15:36:39.302Z,82.29
2022-12-15T15:39:14.222Z,81.67
2022-12-15T15:41:42.690Z,81.59
2022-12-15T15:44:15.118Z,81.65
2022-12-15T15:46:49.334Z,81.11
2022-12-15T15:49:19.830Z,81.73
2022-12-15T15:51:48.402Z,81.49
2022-12-15T15:54:19.453Z,82.30
2022-12-15T15:56:47.385Z,82.17
2022-12-15T15:59:20.886Z,82.05
2022-12-15T16:01:54.469Z,82.09
2022-12-15T16:04:22.609Z,82.35
2022-12-15T16:06:51.940Z,82.92
2022-12-15T16:09:20.324Z,84.15
2022-12-15T16:11:48.286Z,86.39
2022-12-15T16:14:18.670Z,86.17
2022-12-15T16:16:46.815Z,86.17
2022-12-15T16:19:15.038Z,86.93
2022-12-15T16:21:44.189Z,88.13
2022-12-15T16:24:16.719Z,89.13
2022-12-15T16:26:49.523Z,89.28
2022-12-15T16:29:21.050Z,90.44
2022-12-15T16:31:49.191Z,90.66
2022-12-15T16:34:21.777Z,89.23
2022-12-15T16:36:49.809Z,89.90
2022-12-15T16:39:26.407Z,90.54
2022-12-15T16:41:55.793Z,91.10
2022-12-15T16:44:25.766Z,90.40
2022-12-15T16:46:54.259Z,90.19
2022-12-15T16:49:22.721Z,89.73
2022-12-15T16:51:53.168Z,88.90
2022-12-15T16:54:24.292Z,90.00
2022-12-15T16:56:53.305Z,88.90
2022-12-15T16:59:33.199Z,89.62
2022-12-15T17:02:04.213Z,89.34
2022-12-15T17:04:32.373Z,88.35
2022-12-15T17:07:00.368Z,88.52
2022-12-15T17:09:28.394Z,88.82
2022-12-15T17:12:03.929Z,88.56
2022-12-15T17:14:32.543Z,88.57
2022-12-15T17:17:02.159Z,88.81
2022-12-15T17:19:30.350Z,89.21
2022-12-15T17:21:58.350Z,88.90
2022-12-15T17:24:26.346Z,88.26
2022-12-15T17:26:54.802Z,88.56
2022-12-15T17:29:25.221Z,88.72
2022-12-15T17:31:53.807Z,89.49
2022-12-15T17:34:30.243Z,89.33
2022-12-15T17:37:00.652Z,89.28
2022-12-15T17:39:29.343Z,89.54
2022-12-15T17:42:00.472Z,88.93
2022-12-15T17:44:33.806Z,89.65
2022-12-15T17:47:03.902Z,89.54
2022-12-15T17:49:36.554Z,89.38
2022-12-15T17:52:09.239Z,89.40
2022-12-15T17:54:37.354Z,89.97
2022-12-15T17:57:05.339Z,89.86
2022-12-15T17:59:33.348Z,89.61
2022-12-15T18:02:01.358Z,89.83
2022-12-15T18:04:29.474Z,90.13
2022-12-15T18:07:01.954Z,89.99
2022-12-15T18:09:30.773Z,89.96
2022-12-15T18:11:59.015Z,90.37
2022-12-15T18:14:29.088Z,90.40
2022-12-15T18:16:57.012Z,89.87
2022-12-15T18:19:28.955Z,89.84
2022-12-15T18:22:01.322Z,91.38
2022-12-15T18:24:29.379Z,91.12
2022-12-15T18:26:57.362Z,90.62
2022-12-15T18:29:25.450Z,90.66
2022-12-15T18:31:53.685Z,90.54
2022-12-15T18:34:22.809Z,90.80
2022-12-15T18:36:51.574Z,90.99
2022-12-15T18:39:23.616Z,91.41
2022-12-15T18:41:54.684Z,90.99
2022-12-15T18:44:24.320Z,91.00
2022-12-15T18:46:52.302Z,91.33
2022-12-15T18:49:22.945Z,91.54
2022-12-15T18:51:51.436Z,91.27
2022-12-15T18:54:22.873Z,91.45
2022-12-15T18:56:51.622Z,91.35
2022-12-15T18:59:20.577Z,91.25
2022-12-15T19:01:50.024Z,91.79
2022-12-15T19:04:18.375Z,94.75
2022-12-15T19:06:46.443Z,98.45
2022-12-15T19:09:16.715Z,100.00
2022-12-15T19:12:17.759Z,100.00
2022-12-15T19:14:47.190Z,100.00
2022-12-15T19:17:34.960Z,100.00
2022-12-15T19:20:21.754Z,100.00
2022-12-15T19:22:50.089Z,100.00
2022-12-15T19:25:25.991Z,100.00
2022-12-15T19:27:59.252Z,100.00
2022-12-15T19:30:31.280Z,100.00
2022-12-15T19:32:59.223Z,100.00
2022-12-15T19:35:29.149Z,100.00
2022-12-15T19:37:59.651Z,99.93
2022-12-15T19:40:30.583Z,99.43
2022-12-15T19:43:01.241Z,98.91
2022-12-15T19:45:30.839Z,98.19
2022-12-15T19:47:59.365Z,98.08
2022-12-15T19:50:30.013Z,97.67
2022-12-15T19:53:01.013Z,96.85
2022-12-15T19:55:32.655Z,96.82
2022-12-15T19:58:02.522Z,97.47
2022-12-15T20:00:33.178Z,98.06
2022-12-15T20:03:06.394Z,99.46
2022-12-15T20:05:34.431Z,98.82
2022-12-15T20:08:02.397Z,98.45
2022-12-15T20:10:32.540Z,97.50
2022-12-15T20:13:03.372Z,98.28
2022-12-15T20:15:31.411Z,97.94
2022-12-15T20:17:59.365Z,97.63
2022-12-15T20:20:29.919Z,97.16
2022-12-15T20:23:00.993Z,97.59
2022-12-15T20:25:30.756Z,98.03
2022-12-15T20:28:00.360Z,98.18
2022-12-15T20:30:32.867Z,97.97
2022-12-15T20:33:00.992Z,98.17
2022-12-15T20:35:31.597Z,98.67
2022-12-15T20:37:59.958Z,97.63
2022-12-15T20:40:30.570Z,97.06
2022-12-15T20:42:58.873Z,97.38
2022-12-15T20:45:29.655Z,97.83
2022-12-15T20:47:57.866Z,97.23
2022-12-15T20:50:35.387Z,96.97
2022-12-15T20:53:03.622Z,97.24
2022-12-15T20:55:31.654Z,97.36
2022-12-15T20:57:59.728Z,96.83
2022-12-15T21:00:28.997Z,96.98
2022-12-15T21:02:57.081Z,97.33
2022-12-15T21:05:26.603Z,97.29
2022-12-15T21:07:54.594Z,97.67
2022-12-15T21:10:22.785Z,99.34
2022-12-15T21:12:51.497Z,99.39
2022-12-15T21:15:21.798Z,99.98
2022-12-15T21:18:19.772Z,100.00
2022-12-15T21:20:42.910Z,100.00
2022-12-15T21:23:24.063Z,100.00
2022-12-15T21:25:53.380Z,100.00
2022-12-15T21:28:22.110Z,99.70
2022-12-15T21:30:50.821Z,99.78
2022-12-15T21:33:20.709Z,99.58
2022-12-15T21:35:49.028Z,99.83
2022-12-15T21:38:33.243Z,100.00
2022-12-15T21:41:03.755Z,100.00
2022-12-15T21:43:34.539Z,100.00
2022-12-15T21:46:05.100Z,100.00
2022-12-15T21:48:51.876Z,100.00
2022-12-15T21:51:19.855Z,100.00
2022-12-15T21:53:48.128Z,100.00
2022-12-15T21:56:17.492Z,100.00
2022-12-15T21:58:46.157Z,100.00
2022-12-15T22:01:15.991Z,100.00
2022-12-15T22:03:51.195Z,100.00
2022-12-15T22:06:21.254Z,100.00
2022-12-15T22:08:49.520Z,100.00
2022-12-15T22:11:21.940Z,100.00
2022-12-15T22:13:50.969Z,100.00
2022-12-15T22:16:19.123Z,100.00
2022-12-15T22:18:52.455Z,100.00
2022-12-15T22:21:23.033Z,100.00
2022-12-15T22:23:51.009Z,100.00
2022-12-15T22:26:22.776Z,100.00
2022-12-15T22:28:51.630Z,100.00
2022-12-15T22:31:20.138Z,100.00
2022-12-15T22:33:49.677Z,100.00
2022-12-15T22:36:17.629Z,100.00
2022-12-15T22:38:47.003Z,100.00
2022-12-15T22:41:19.665Z,100.00
2022-12-15T22:43:52.230Z,100.00
2022-12-15T22:46:22.105Z,100.00
2022-12-15T22:48:54.665Z,100.00
2022-12-15T22:51:23.147Z,100.00
2022-12-15T22:53:51.706Z,100.00
2022-12-15T22:56:25.775Z,100.00
2022-12-15T22:58:59.272Z,100.00
2022-12-15T23:01:27.933Z,100.00
2022-12-15T23:03:57.429Z,100.00
2022-12-15T23:06:27.351Z,100.00
2022-12-15T23:08:56.307Z,100.00
2022-12-15T23:11:39.066Z,100.00
2022-12-15T23:14:08.533Z,100.00
2022-12-15T23:16:35.807Z,100.00
2022-12-15T23:19:08.258Z,100.00
2022-12-15T23:21:36.793Z,100.00
2022-12-15T23:24:04.904Z,100.00
2022-12-15T23:26:32.977Z,100.00
2022-12-15T23:29:00.935Z,100.00
2022-12-15T23:31:29.002Z,100.00
2022-12-15T23:33:57.007Z,100.00
2022-12-15T23:36:26.364Z,100.00
2022-12-15T23:38:55.175Z,100.00
2022-12-15T23:41:23.053Z,100.00
2022-12-15T23:43:51.040Z,100.00
2022-12-15T23:46:19.933Z,100.00
2022-12-15T23:48:48.192Z,100.00
2022-12-15T23:51:17.779Z,100.00
2022-12-15T23:53:48.723Z,100.00
2022-12-15T23:56:18.461Z,100.00
2022-12-15T23:58:47.825Z,100.00
